Time;durP1;ratioP1;P1;durP2;ratioP2;P2;SDS_P1;SDS_P2;PMS_P1;PMS_P2;Temp;Humidity;BMP_temperature;BMP_pressure;BME280_temperature;BME280_humidity;BME280_pressure;Samples;Min_cycle;Max_cycle;Signal;HPM_P1;HPM_P2
2023/08/12 00:00:29;;;;;;;30.88;15.55;;;;;;;;;;5049977;28;20553;-73
2023/08/12 00:02:54;;;;;;;31.92;16.33;;;;;;;;;;5051403;28;20113;-73
2023/08/12 00:05:20;;;;;;;31.67;16.37;;;;;;;;;;5049910;28;20417;-73
2023/08/12 00:07:45;;;;;;;25.85;13.00;;;;;;;;;;5050420;28;20369;-73
2023/08/12 00:10:11;;;;;;;32.80;16.60;;;;;;;;;;5049477;28;20543;-73
2023/08/12 00:12:37;;;;;;;31.42;15.75;;;;;;;;;;5051085;28;20282;-72
2023/08/12 00:15:04;;;;;;;29.48;14.05;;;;;;;;;;5048719;28;20021;-72
2023/08/12 00:17:29;;;;;;;24.98;13.35;;;;;;;;;;5051234;28;20381;-72
2023/08/12 00:19:54;;;;;;;29.63;16.20;;;;;;;;;;5049256;28;20025;-72
2023/08/12 00:22:19;;;;;;;32.57;14.73;;;;;;;;;;5048573;28;20100;-72
2023/08/12 00:24:45;;;;;;;34.23;15.03;;;;;;;;;;5048214;28;20017;-72
2023/08/12 00:27:10;;;;;;;32.83;15.93;;;;;;;;;;5052512;28;20263;-73
2023/08/12 00:29:36;;;;;;;24.98;13.75;;;;;;;;;;5050807;28;20426;-73
2023/08/12 00:32:01;;;;;;;32.70;15.45;;;;;;;;;;5050589;28;20062;-72
2023/08/12 00:34:26;;;;;;;27.98;13.60;;;;;;;;;;5051004;28;20024;-72
2023/08/12 00:36:52;;;;;;;27.05;14.85;;;;;;;;;;5052327;28;20021;-73
2023/08/12 00:39:17;;;;;;;24.80;12.83;;;;;;;;;;5050576;28;20130;-72
2023/08/12 00:41:42;;;;;;;34.63;14.20;;;;;;;;;;5050396;28;20321;-73
2023/08/12 00:44:07;;;;;;;24.53;13.57;;;;;;;;;;5051131;28;20276;-72
2023/08/12 00:46:33;;;;;;;23.27;12.93;;;;;;;;;;5050701;28;20033;-73
2023/08/12 00:48:59;;;;;;;26.90;14.32;;;;;;;;;;5044739;28;20528;-73
2023/08/12 00:51:24;;;;;;;21.63;12.35;;;;;;;;;;5050695;28;20029;-74
2023/08/12 00:53:50;;;;;;;28.00;15.30;;;;;;;;;;5052023;28;20074;-76
2023/08/12 00:56:15;;;;;;;28.33;13.27;;;;;;;;;;5050310;28;20028;-73
2023/08/12 00:58:41;;;;;;;27.42;13.15;;;;;;;;;;5050652;28;20128;-73
2023/08/12 01:01:07;;;;;;;24.35;13.75;;;;;;;;;;5050743;28;20032;-72
2023/08/12 01:03:32;;;;;;;26.33;13.13;;;;;;;;;;5047318;28;20029;-73
2023/08/12 01:05:57;;;;;;;26.23;12.93;;;;;;;;;;5049921;28;20070;-73
2023/08/12 01:08:26;;;;;;;24.85;12.48;;;;;;;;;;5049936;28;20271;-73
2023/08/12 01:10:58;;;;;;;23.85;12.32;;;;;;;;;;5048435;28;20111;-73
2023/08/12 01:13:31;;;;;;;26.17;12.60;;;;;;;;;;5048940;28;20035;-75
2023/08/12 01:15:58;;;;;;;22.17;12.05;;;;;;;;;;5049805;28;20075;-73
2023/08/12 01:18:24;;;;;;;22.02;11.82;;;;;;;;;;5048962;28;20025;-73
2023/08/12 01:20:49;;;;;;;24.98;12.55;;;;;;;;;;5045501;28;20067;-73
2023/08/12 01:23:14;;;;;;;21.33;11.03;;;;;;;;;;5048808;28;20024;-72
2023/08/12 01:25:40;;;;;;;25.73;12.82;;;;;;;;;;5047546;28;20394;-73
2023/08/12 01:28:06;;;;;;;22.67;11.65;;;;;;;;;;5050434;28;20494;-72
2023/08/12 01:30:32;;;;;;;29.38;13.55;;;;;;;;;;5050175;28;20028;-72
2023/08/12 01:33:06;;;;;;;23.40;11.18;;;;;;;;;;5050804;28;20017;-73
2023/08/12 01:35:49;;;;;;;21.73;11.55;;;;;;;;;;5050002;28;20094;-74
2023/08/12 01:38:15;;;;;;;24.40;12.45;;;;;;;;;;5047672;28;20092;-72
2023/08/12 01:40:41;;;;;;;23.00;12.30;;;;;;;;;;5049890;28;20092;-73
2023/08/12 01:43:08;;;;;;;22.25;13.13;;;;;;;;;;5050493;28;20017;-73
2023/08/12 01:45:33;;;;;;;22.88;12.02;;;;;;;;;;5049597;28;20040;-72
2023/08/12 01:47:58;;;;;;;21.33;12.10;;;;;;;;;;5050618;28;20021;-73
2023/08/12 01:50:24;;;;;;;25.17;12.30;;;;;;;;;;5048654;28;20025;-73
2023/08/12 01:52:49;;;;;;;27.33;13.43;;;;;;;;;;5047846;28;20279;-72
2023/08/12 01:55:14;;;;;;;19.33;11.20;;;;;;;;;;5050750;28;20404;-73
2023/08/12 01:57:40;;;;;;;23.60;11.00;;;;;;;;;;5050419;28;20032;-73
2023/08/12 02:00:06;;;;;;;25.92;11.38;;;;;;;;;;5049322;28;20108;-73
2023/08/12 02:02:31;;;;;;;27.27;10.85;;;;;;;;;;5047783;28;20039;-73
2023/08/12 02:04:56;;;;;;;20.47;11.43;;;;;;;;;;5048719;28;20529;-72
2023/08/12 02:07:21;;;;;;;19.80;10.67;;;;;;;;;;5049116;28;20021;-73
2023/08/12 02:09:46;;;;;;;20.03;10.77;;;;;;;;;;5048927;28;20422;-74
2023/08/12 02:12:12;;;;;;;18.67;10.80;;;;;;;;;;5044657;28;20111;-73
2023/08/12 02:14:37;;;;;;;22.80;10.70;;;;;;;;;;5047869;28;20017;-74
2023/08/12 02:17:05;;;;;;;21.20;9.52;;;;;;;;;;5046600;28;20021;-74
2023/08/12 02:19:30;;;;;;;19.50;10.15;;;;;;;;;;5046494;28;20057;-74
2023/08/12 02:21:55;;;;;;;24.30;9.93;;;;;;;;;;5047142;28;20644;-73
2023/08/12 02:24:20;;;;;;;17.73;9.27;;;;;;;;;;5047523;28;20287;-74
2023/08/12 02:26:46;;;;;;;14.80;7.90;;;;;;;;;;5048381;28;20071;-73
2023/08/12 02:29:11;;;;;;;21.13;8.87;;;;;;;;;;5047011;28;20786;-74
2023/08/12 02:31:36;;;;;;;23.33;10.83;;;;;;;;;;5049239;28;20363;-73
2023/08/12 02:34:01;;;;;;;14.27;8.60;;;;;;;;;;5048776;28;20067;-74
2023/08/12 02:36:26;;;;;;;13.33;8.50;;;;;;;;;;5050228;28;20762;-74
2023/08/12 02:38:52;;;;;;;19.07;9.10;;;;;;;;;;5048854;28;20778;-74
2023/08/12 02:41:17;;;;;;;15.50;8.23;;;;;;;;;;5049203;28;20279;-73
2023/08/12 02:43:42;;;;;;;19.17;9.63;;;;;;;;;;5049464;28;20088;-73
2023/08/12 02:46:07;;;;;;;18.40;8.67;;;;;;;;;;5049391;28;20617;-73
2023/08/12 02:48:32;;;;;;;18.73;8.87;;;;;;;;;;5048390;28;20013;-74
2023/08/12 02:50:57;;;;;;;18.17;8.90;;;;;;;;;;5049356;28;20251;-73
2023/08/12 02:53:23;;;;;;;18.67;8.90;;;;;;;;;;5048697;28;20031;-73
2023/08/12 02:55:48;;;;;;;27.43;8.63;;;;;;;;;;5048838;28;20275;-73
2023/08/12 02:58:13;;;;;;;18.10;10.20;;;;;;;;;;5048678;28;20410;-73
2023/08/12 03:00:43;;;;;;;18.23;10.23;;;;;;;;;;5048682;28;20845;-73
2023/08/12 03:03:09;;;;;;;21.65;10.27;;;;;;;;;;5050935;28;20021;-74
2023/08/12 03:05:34;;;;;;;20.67;9.38;;;;;;;;;;5052703;28;20386;-73
2023/08/12 03:08:01;;;;;;;25.42;9.32;;;;;;;;;;5047700;28;20020;-73
2023/08/12 03:10:26;;;;;;;18.58;10.07;;;;;;;;;;5052253;28;20029;-73
2023/08/12 03:12:53;;;;;;;19.70;10.05;;;;;;;;;;5052634;28;20362;-74
2023/08/12 03:15:18;;;;;;;20.00;9.77;;;;;;;;;;5050414;28;20093;-73
2023/08/12 03:17:43;;;;;;;20.87;10.20;;;;;;;;;;5052533;28;20482;-73
2023/08/12 03:20:09;;;;;;;21.67;10.10;;;;;;;;;;5052841;28;20279;-73
2023/08/12 03:22:35;;;;;;;15.70;10.23;;;;;;;;;;5051189;28;20344;-73
2023/08/12 03:25:00;;;;;;;19.48;9.60;;;;;;;;;;5051717;28;20048;-74
2023/08/12 03:27:25;;;;;;;18.50;9.43;;;;;;;;;;5051433;28;20378;-73
2023/08/12 03:29:51;;;;;;;20.07;10.10;;;;;;;;;;5051794;28;20056;-73
2023/08/12 03:32:16;;;;;;;21.85;9.50;;;;;;;;;;5051832;28;20021;-72
2023/08/12 03:34:41;;;;;;;21.57;9.30;;;;;;;;;;5051688;28;20482;-72
2023/08/12 03:37:06;;;;;;;15.97;9.77;;;;;;;;;;5049893;28;20271;-73
2023/08/12 03:39:32;;;;;;;16.33;9.40;;;;;;;;;;5050481;28;20028;-73
2023/08/12 03:41:57;;;;;;;22.77;9.97;;;;;;;;;;5051442;28;20260;-73
2023/08/12 03:44:22;;;;;;;21.37;9.13;;;;;;;;;;5052383;28;20278;-73
2023/08/12 03:46:47;;;;;;;16.97;9.20;;;;;;;;;;5049560;28;20032;-72
2023/08/12 03:49:12;;;;;;;16.10;9.03;;;;;;;;;;5051393;28;20373;-73
2023/08/12 03:51:37;;;;;;;18.93;9.63;;;;;;;;;;5051293;28;20274;-73
2023/08/12 03:54:03;;;;;;;19.37;8.83;;;;;;;;;;5052665;28;20278;-72
2023/08/12 03:56:29;;;;;;;19.25;9.02;;;;;;;;;;5049810;28;20434;-73
2023/08/12 03:58:54;;;;;;;22.77;9.98;;;;;;;;;;5050632;28;20035;-73
2023/08/12 04:01:19;;;;;;;14.90;8.97;;;;;;;;;;5050722;28;20059;-73
2023/08/12 04:03:44;;;;;;;16.83;8.60;;;;;;;;;;5051963;28;20258;-73
2023/08/12 04:06:09;;;;;;;17.77;8.90;;;;;;;;;;5050078;28;20032;-72
2023/08/12 04:08:34;;;;;;;18.53;8.50;;;;;;;;;;5050343;28;20274;-73
2023/08/12 04:11:00;;;;;;;16.27;9.47;;;;;;;;;;5050272;28;20386;-73
2023/08/12 04:13:25;;;;;;;21.47;8.53;;;;;;;;;;5051872;28;20275;-73
2023/08/12 04:15:50;;;;;;;17.95;8.65;;;;;;;;;;5050568;28;20321;-73
2023/08/12 04:18:16;;;;;;;15.13;7.75;;;;;;;;;;5041508;28;20070;-73
2023/08/12 04:20:41;;;;;;;19.67;8.05;;;;;;;;;;5047284;28;20023;-72
2023/08/12 04:23:06;;;;;;;14.77;8.37;;;;;;;;;;5052801;28;20036;-73
2023/08/12 04:25:32;;;;;;;13.90;7.63;;;;;;;;;;5049888;28;20748;-73
2023/08/12 04:27:57;;;;;;;15.60;7.85;;;;;;;;;;5048764;28;20286;-73
2023/08/12 04:30:23;;;;;;;16.45;8.80;;;;;;;;;;5051287;28;20051;-73
2023/08/12 04:32:48;;;;;;;16.73;8.00;;;;;;;;;;5050154;28;20052;-73
2023/08/12 04:35:13;;;;;;;16.60;8.13;;;;;;;;;;5052110;28;20359;-72
2023/08/12 04:37:38;;;;;;;13.10;7.17;;;;;;;;;;5049432;28;20267;-72
2023/08/12 04:40:07;;;;;;;16.07;7.97;;;;;;;;;;5050856;28;20296;-72
2023/08/12 04:42:32;;;;;;;20.17;8.68;;;;;;;;;;5051377;28;20294;-73
2023/08/12 04:44:57;;;;;;;15.60;8.88;;;;;;;;;;5051379;28;20395;-72
2023/08/12 04:47:23;;;;;;;18.13;8.07;;;;;;;;;;5050597;28;20090;-73
2023/08/12 04:49:48;;;;;;;17.77;7.95;;;;;;;;;;5050281;28;20099;-73
2023/08/12 04:52:13;;;;;;;17.10;9.10;;;;;;;;;;5051810;28;20719;-72
2023/08/12 04:54:38;;;;;;;13.45;8.95;;;;;;;;;;5052022;28;20259;-73
2023/08/12 04:57:03;;;;;;;13.80;8.23;;;;;;;;;;5050630;28;20023;-73
2023/08/12 04:59:29;;;;;;;14.95;9.20;;;;;;;;;;5048982;28;20086;-72
2023/08/12 05:01:54;;;;;;;14.47;7.73;;;;;;;;;;5049900;28;20041;-72
2023/08/12 05:04:19;;;;;;;25.67;8.75;;;;;;;;;;5048834;28;20271;-72
2023/08/12 05:06:44;;;;;;;17.00;8.40;;;;;;;;;;5049844;28;20044;-72
2023/08/12 05:09:09;;;;;;;11.43;7.32;;;;;;;;;;5048679;28;20310;-72
2023/08/12 05:11:35;;;;;;;9.80;6.70;;;;;;;;;;5033971;28;20049;-72
2023/08/12 05:14:00;;;;;;;12.70;7.70;;;;;;;;;;5051763;28;20699;-72
2023/08/12 05:16:25;;;;;;;12.75;6.10;;;;;;;;;;5045921;28;20336;-72
2023/08/12 05:18:51;;;;;;;11.87;6.30;;;;;;;;;;5047596;28;20082;-72
2023/08/12 05:21:16;;;;;;;13.25;7.65;;;;;;;;;;5049689;28;20276;-72
2023/08/12 05:23:41;;;;;;;12.60;7.30;;;;;;;;;;5046752;28;20426;-72
2023/08/12 05:26:06;;;;;;;15.10;5.83;;;;;;;;;;5050079;28;20267;-72
2023/08/12 05:28:31;;;;;;;13.90;6.13;;;;;;;;;;5048795;28;20371;-72
2023/08/12 05:30:57;;;;;;;10.17;5.90;;;;;;;;;;5048676;28;20541;-72
2023/08/12 05:33:22;;;;;;;7.53;5.20;;;;;;;;;;5048992;28;20082;-72
2023/08/12 05:35:48;;;;;;;12.07;6.57;;;;;;;;;;5049609;28;20025;-72
2023/08/12 05:38:13;;;;;;;10.52;5.55;;;;;;;;;;5047299;28;20267;-72
2023/08/12 05:40:38;;;;;;;18.77;6.00;;;;;;;;;;5048564;28;20424;-72
2023/08/12 05:43:03;;;;;;;9.50;5.47;;;;;;;;;;5050132;28;20278;-72
2023/08/12 05:45:28;;;;;;;8.77;5.67;;;;;;;;;;5050015;28;20052;-72
2023/08/12 05:47:54;;;;;;;13.73;6.55;;;;;;;;;;5048977;28;20025;-71
2023/08/12 05:50:19;;;;;;;13.73;6.43;;;;;;;;;;5046682;28;20422;-72
2023/08/12 05:52:44;;;;;;;14.80;7.03;;;;;;;;;;5049311;28;20020;-72
2023/08/12 05:55:09;;;;;;;13.10;6.27;;;;;;;;;;5048434;28;20051;-72
2023/08/12 05:57:34;;;;;;;13.15;6.53;;;;;;;;;;5048662;28;20037;-72
2023/08/12 06:00:00;;;;;;;12.47;4.83;;;;;;;;;;5048660;28;20104;-72
2023/08/12 06:02:25;;;;;;;11.87;6.20;;;;;;;;;;5049747;28;20262;-72
2023/08/12 06:04:50;;;;;;;9.40;4.17;;;;;;;;;;5049008;28;20275;-72
2023/08/12 06:07:15;;;;;;;12.03;4.47;;;;;;;;;;5048894;28;20921;-72
2023/08/12 06:09:40;;;;;;;13.95;4.80;;;;;;;;;;5046065;28;20326;-73
2023/08/12 06:12:06;;;;;;;9.87;5.27;;;;;;;;;;5049608;28;20017;-73
2023/08/12 06:14:31;;;;;;;7.47;4.40;;;;;;;;;;5049123;28;20036;-73
2023/08/12 06:16:56;;;;;;;10.97;4.83;;;;;;;;;;5046335;28;20144;-73
2023/08/12 06:19:21;;;;;;;11.55;5.72;;;;;;;;;;5040451;28;22100;-73
2023/08/12 06:21:46;;;;;;;14.47;6.00;;;;;;;;;;5045080;28;20500;-73
2023/08/12 06:24:12;;;;;;;11.73;5.93;;;;;;;;;;5043725;28;20353;-73
2023/08/12 06:26:37;;;;;;;16.23;6.07;;;;;;;;;;5043373;28;20271;-73
2023/08/12 06:29:02;;;;;;;12.70;5.07;;;;;;;;;;5046971;28;20334;-73
2023/08/12 06:31:27;;;;;;;31.03;6.23;;;;;;;;;;5049041;28;20460;-73
2023/08/12 06:33:52;;;;;;;9.17;5.87;;;;;;;;;;5049342;28;20791;-73
2023/08/12 06:36:17;;;;;;;13.50;7.03;;;;;;;;;;5046906;28;20330;-73
2023/08/12 06:38:43;;;;;;;7.67;4.77;;;;;;;;;;5044945;28;20275;-73
2023/08/12 06:41:08;;;;;;;8.90;5.03;;;;;;;;;;5047791;28;20052;-73
2023/08/12 06:43:33;;;;;;;9.20;5.03;;;;;;;;;;5045606;28;20324;-73
2023/08/12 06:45:58;;;;;;;11.55;6.10;;;;;;;;;;5046922;28;20263;-73
2023/08/12 06:48:24;;;;;;;7.17;4.23;;;;;;;;;;5046928;28;20025;-73
2023/08/12 06:50:55;;;;;;;16.17;5.85;;;;;;;;;;5048435;28;20501;-73
2023/08/12 06:53:20;;;;;;;9.48;4.53;;;;;;;;;;5049996;28;20031;-73
2023/08/12 06:55:46;;;;;;;11.47;5.80;;;;;;;;;;5047955;28;20024;-73
2023/08/12 06:58:13;;;;;;;46.13;5.43;;;;;;;;;;5047715;28;20676;-73
2023/08/12 07:00:38;;;;;;;5.20;2.05;;;;;;;;;;5045251;28;20305;-73
2023/08/12 07:03:03;;;;;;;9.00;5.37;;;;;;;;;;5049887;28;20100;-73
2023/08/12 07:05:28;;;;;;;7.65;3.88;;;;;;;;;;5045788;28;20767;-73
2023/08/12 07:07:53;;;;;;;9.03;4.40;;;;;;;;;;5046271;28;20029;-73
2023/08/12 07:10:19;;;;;;;8.67;4.23;;;;;;;;;;5044401;28;20271;-73
2023/08/12 07:12:44;;;;;;;10.50;4.37;;;;;;;;;;5047084;28;20478;-73
2023/08/12 07:15:10;;;;;;;8.27;3.10;;;;;;;;;;5046478;28;20025;-73
2023/08/12 07:17:36;;;;;;;9.75;4.28;;;;;;;;;;5046225;28;20112;-73
2023/08/12 07:20:02;;;;;;;14.83;4.37;;;;;;;;;;5048127;28;20108;-73
2023/08/12 07:22:27;;;;;;;4.97;2.88;;;;;;;;;;5047750;28;20445;-73
2023/08/12 07:24:52;;;;;;;7.53;4.30;;;;;;;;;;5048439;28;20526;-73
2023/08/12 07:27:17;;;;;;;14.93;4.68;;;;;;;;;;5048848;28;20275;-73
2023/08/12 07:29:43;;;;;;;9.93;3.85;;;;;;;;;;5049648;28;20021;-73
2023/08/12 07:32:08;;;;;;;5.30;3.38;;;;;;;;;;5046805;28;20374;-73
2023/08/12 07:34:33;;;;;;;10.07;4.43;;;;;;;;;;5049479;28;20013;-73
2023/08/12 07:36:58;;;;;;;12.70;4.27;;;;;;;;;;5047050;28;20648;-72
2023/08/12 07:39:23;;;;;;;8.55;4.80;;;;;;;;;;5048312;28;20063;-73
2023/08/12 07:41:49;;;;;;;7.17;4.70;;;;;;;;;;5044073;28;20078;-73
2023/08/12 07:44:14;;;;;;;7.43;3.20;;;;;;;;;;5042555;28;20025;-73
2023/08/12 07:46:39;;;;;;;9.07;4.43;;;;;;;;;;5039169;28;20283;-73
2023/08/12 07:49:04;;;;;;;8.50;3.53;;;;;;;;;;5040641;28;20370;-73
2023/08/12 07:51:30;;;;;;;9.68;3.78;;;;;;;;;;5046614;28;20752;-72
2023/08/12 07:53:55;;;;;;;11.35;4.20;;;;;;;;;;5048321;28;20178;-72
2023/08/12 07:56:20;;;;;;;11.67;3.23;;;;;;;;;;5048007;28;20032;-73
2023/08/12 07:58:45;;;;;;;4.70;2.63;;;;;;;;;;5046651;28;20264;-73
2023/08/12 08:01:11;;;;;;;10.02;3.95;;;;;;;;;;5048196;28;20024;-73
2023/08/12 08:03:36;;;;;;;3.58;2.00;;;;;;;;;;5049949;28;20021;-73
2023/08/12 08:06:01;;;;;;;5.37;2.47;;;;;;;;;;5049000;28;20424;-73
2023/08/12 08:08:26;;;;;;;7.60;2.13;;;;;;;;;;5048263;28;20031;-73
2023/08/12 08:10:51;;;;;;;8.30;3.93;;;;;;;;;;5048413;28;20267;-73
2023/08/12 08:13:17;;;;;;;8.03;2.90;;;;;;;;;;5049419;28;20390;-73
2023/08/12 08:15:42;;;;;;;6.97;3.70;;;;;;;;;;5049981;28;20659;-73
2023/08/12 08:18:07;;;;;;;5.97;2.37;;;;;;;;;;5045910;28;20197;-73
2023/08/12 08:20:33;;;;;;;3.30;1.70;;;;;;;;;;5046865;28;20298;-72
2023/08/12 08:22:58;;;;;;;8.95;3.17;;;;;;;;;;5049816;28;20029;-72
2023/08/12 08:25:23;;;;;;;6.97;3.05;;;;;;;;;;5045004;28;20025;-72
2023/08/12 08:27:48;;;;;;;6.07;3.00;;;;;;;;;;5049014;28;20081;-73
2023/08/12 08:30:13;;;;;;;4.33;2.20;;;;;;;;;;5045433;28;20100;-72
2023/08/12 08:32:39;;;;;;;3.53;1.60;;;;;;;;;;5047920;28;20628;-72
2023/08/12 08:35:04;;;;;;;7.70;3.00;;;;;;;;;;5044782;28;20660;-72
2023/08/12 08:37:29;;;;;;;6.88;2.50;;;;;;;;;;5049869;28;20331;-72
2023/08/12 08:39:54;;;;;;;6.00;1.50;;;;;;;;;;5047933;28;20040;-72
2023/08/12 08:42:20;;;;;;;2.60;1.13;;;;;;;;;;5047087;28;20279;-72
2023/08/12 08:44:49;;;;;;;3.95;2.28;;;;;;;;;;5047499;28;20013;-72
2023/08/12 08:47:16;;;;;;;1.23;0.90;;;;;;;;;;5045618;28;20017;-72
2023/08/12 08:49:42;;;;;;;1.52;0.88;;;;;;;;;;5046703;28;20107;-72
2023/08/12 08:52:07;;;;;;;5.13;2.00;;;;;;;;;;5046417;28;20152;-72
2023/08/12 08:54:33;;;;;;;4.75;2.80;;;;;;;;;;5045447;28;20111;-72
2023/08/12 08:56:59;;;;;;;5.68;2.15;;;;;;;;;;5040890;28;20025;-72
2023/08/12 08:59:24;;;;;;;5.93;2.15;;;;;;;;;;5045341;28;20032;-72
2023/08/12 09:01:51;;;;;;;10.10;1.90;;;;;;;;;;5044386;28;20586;-72
2023/08/12 09:04:17;;;;;;;8.32;2.65;;;;;;;;;;5044764;28;20383;-72
2023/08/12 09:06:43;;;;;;;11.68;2.13;;;;;;;;;;5042886;28;20437;-72
2023/08/12 09:09:10;;;;;;;5.35;2.13;;;;;;;;;;5048248;28;20055;-72
2023/08/12 09:11:38;;;;;;;5.35;2.47;;;;;;;;;;5047777;28;20382;-72
2023/08/12 09:14:03;;;;;;;5.40;2.30;;;;;;;;;;5046419;28;20029;-72
2023/08/12 09:16:28;;;;;;;7.07;2.30;;;;;;;;;;5045634;28;20052;-72
2023/08/12 09:18:55;;;;;;;4.18;2.85;;;;;;;;;;5022894;28;20295;-72
2023/08/12 09:21:20;;;;;;;1.65;1.10;;;;;;;;;;5044500;28;20082;-72
2023/08/12 09:23:46;;;;;;;5.10;2.53;;;;;;;;;;5041356;28;20425;-72
2023/08/12 09:26:15;;;;;;;6.80;1.85;;;;;;;;;;5042355;28;20024;-72
2023/08/12 09:28:40;;;;;;;1.07;0.80;;;;;;;;;;5041426;28;20738;-72
2023/08/12 09:31:06;;;;;;;4.97;2.15;;;;;;;;;;5048077;28;20021;-72
2023/08/12 09:33:31;;;;;;;3.23;1.87;;;;;;;;;;5050239;28;20021;-72
2023/08/12 09:35:59;;;;;;;5.53;2.50;;;;;;;;;;5051250;28;20350;-72
2023/08/12 09:38:25;;;;;;;9.18;1.85;;;;;;;;;;5050096;28;20255;-72
2023/08/12 09:40:52;;;;;;;5.78;1.85;;;;;;;;;;5045289;28;20024;-72
2023/08/12 09:43:17;;;;;;;3.60;1.85;;;;;;;;;;5046315;28;20017;-72
2023/08/12 09:45:44;;;;;;;2.03;1.20;;;;;;;;;;5046083;28;20020;-72
2023/08/12 09:48:09;;;;;;;2.70;1.33;;;;;;;;;;5046640;28;20116;-72
2023/08/12 09:50:36;;;;;;;5.53;1.80;;;;;;;;;;5028901;28;20131;-72
2023/08/12 09:53:02;;;;;;;4.28;1.38;;;;;;;;;;5048982;28;20301;-72
2023/08/12 09:55:29;;;;;;;7.05;1.80;;;;;;;;;;5045907;28;20020;-72
2023/08/12 09:57:54;;;;;;;2.67;1.25;;;;;;;;;;5047968;28;20033;-71
2023/08/12 10:00:20;;;;;;;6.38;2.00;;;;;;;;;;5044133;28;20062;-71
2023/08/12 10:02:47;;;;;;;1.92;0.98;;;;;;;;;;5048595;28;20062;-71
2023/08/12 10:05:14;;;;;;;1.35;0.90;;;;;;;;;;5048284;28;20044;-71
2023/08/12 10:07:40;;;;;;;2.33;1.63;;;;;;;;;;5045513;28;20024;-71
2023/08/12 10:10:06;;;;;;;5.85;1.90;;;;;;;;;;5047750;28;20024;-71
2023/08/12 10:12:32;;;;;;;3.45;1.70;;;;;;;;;;5047872;28;20028;-71
2023/08/12 10:14:57;;;;;;;5.82;1.60;;;;;;;;;;5049192;28;20024;-72
2023/08/12 10:17:23;;;;;;;4.55;1.60;;;;;;;;;;5048243;28;20104;-72
2023/08/12 10:19:48;;;;;;;2.65;1.73;;;;;;;;;;5049842;28;20029;-72
2023/08/12 10:22:14;;;;;;;6.30;1.45;;;;;;;;;;5050161;28;20021;-71
2023/08/12 10:24:40;;;;;;;8.70;1.98;;;;;;;;;;5049408;28;20043;-72
2023/08/12 10:27:06;;;;;;;3.22;1.63;;;;;;;;;;5045729;28;20373;-71
2023/08/12 10:29:31;;;;;;;5.55;1.95;;;;;;;;;;5042887;28;20104;-72
2023/08/12 10:31:56;;;;;;;4.40;1.90;;;;;;;;;;5049029;28;20045;-73
2023/08/12 10:34:22;;;;;;;3.90;2.10;;;;;;;;;;5050271;28;20047;-72
2023/08/12 10:36:48;;;;;;;4.55;1.35;;;;;;;;;;5044143;28;20036;-72
2023/08/12 10:39:14;;;;;;;7.13;2.35;;;;;;;;;;5046902;28;20428;-72
2023/08/12 10:41:49;;;;;;;4.75;2.00;;;;;;;;;;5049148;28;20021;-72
2023/08/12 10:44:15;;;;;;;1.15;0.63;;;;;;;;;;5050320;28;20058;-72
2023/08/12 10:46:40;;;;;;;4.37;2.13;;;;;;;;;;5048648;28;20136;-72
2023/08/12 10:49:09;;;;;;;4.40;1.90;;;;;;;;;;5032207;28;20301;-72
2023/08/12 10:51:46;;;;;;;4.30;2.20;;;;;;;;;;5049268;28;20089;-72
2023/08/12 10:54:20;;;;;;;8.25;2.17;;;;;;;;;;5050065;28;20108;-72
2023/08/12 10:57:04;;;;;;;5.90;2.05;;;;;;;;;;5049314;28;20104;-72
2023/08/12 10:59:49;;;;;;;7.53;2.00;;;;;;;;;;5048587;28;20104;-72
2023/08/12 11:02:26;;;;;;;5.15;1.55;;;;;;;;;;5043499;28;20398;-72
2023/08/12 11:04:55;;;;;;;5.78;2.17;;;;;;;;;;5049924;28;20048;-72
2023/08/12 11:07:22;;;;;;;6.05;1.85;;;;;;;;;;5047766;28;20485;-72
2023/08/12 11:09:52;;;;;;;4.80;2.25;;;;;;;;;;5049743;28;20031;-72
2023/08/12 11:12:18;;;;;;;5.63;2.05;;;;;;;;;;5050034;28;20406;-72
2023/08/12 11:14:47;;;;;;;4.07;2.13;;;;;;;;;;5049947;28;20498;-72
2023/08/12 11:17:15;;;;;;;8.63;3.23;;;;;;;;;;5049831;28;20028;-72
2023/08/12 11:19:42;;;;;;;5.93;3.95;;;;;;;;;;5047841;28;20298;-72
2023/08/12 11:22:07;;;;;;;6.70;3.08;;;;;;;;;;5048514;28;20024;-72
2023/08/12 11:24:33;;;;;;;7.82;3.15;;;;;;;;;;5032657;28;20025;-73
2023/08/12 11:26:59;;;;;;;6.40;2.28;;;;;;;;;;5051878;28;20043;-73
2023/08/12 11:29:25;;;;;;;3.88;2.17;;;;;;;;;;5047938;28;20025;-73
2023/08/12 11:31:50;;;;;;;4.63;2.20;;;;;;;;;;5049290;28;20029;-73
2023/08/12 11:34:15;;;;;;;6.10;2.75;;;;;;;;;;5051873;28;20271;-73
2023/08/12 11:36:41;;;;;;;5.40;2.70;;;;;;;;;;5051436;28;20032;-73
2023/08/12 11:39:07;;;;;;;5.40;2.33;;;;;;;;;;5052734;28;20271;-73
2023/08/12 11:41:33;;;;;;;4.82;2.80;;;;;;;;;;5052478;28;20031;-73
2023/08/12 11:43:58;;;;;;;6.30;3.15;;;;;;;;;;5051644;28;20498;-73
2023/08/12 11:46:24;;;;;;;5.00;2.40;;;;;;;;;;5052077;28;20029;-73
2023/08/12 11:48:50;;;;;;;4.63;2.60;;;;;;;;;;5052352;28;20276;-73
2023/08/12 11:51:15;;;;;;;2.97;2.00;;;;;;;;;;5050901;28;20021;-73
2023/08/12 11:53:40;;;;;;;3.28;1.85;;;;;;;;;;5052055;28;20267;-73
2023/08/12 11:56:05;;;;;;;4.30;2.23;;;;;;;;;;5052185;28;20020;-73
2023/08/12 11:58:37;;;;;;;4.47;2.40;;;;;;;;;;5050754;28;20268;-73
2023/08/12 12:01:02;;;;;;;7.53;2.65;;;;;;;;;;5048324;28;20378;-73
2023/08/12 12:03:28;;;;;;;3.83;2.58;;;;;;;;;;5033916;28;20558;-73
2023/08/12 12:05:55;;;;;;;6.30;2.30;;;;;;;;;;5052168;28;20033;-73
2023/08/12 12:08:20;;;;;;;4.30;2.00;;;;;;;;;;5051511;28;20032;-73
2023/08/12 12:10:46;;;;;;;8.40;2.28;;;;;;;;;;5050640;28;20029;-73
2023/08/12 12:13:13;;;;;;;3.67;2.38;;;;;;;;;;5051932;28;20029;-73
2023/08/12 12:15:41;;;;;;;6.80;2.03;;;;;;;;;;5046364;28;20513;-72
2023/08/12 12:18:12;;;;;;;7.22;3.00;;;;;;;;;;5048883;28;20029;-73
2023/08/12 12:20:54;;;;;;;6.18;2.42;;;;;;;;;;5052277;28;20067;-73
2023/08/12 12:23:19;;;;;;;9.93;3.13;;;;;;;;;;5046712;28;20312;-73
2023/08/12 12:25:45;;;;;;;8.60;2.87;;;;;;;;;;5051243;28;20032;-73
2023/08/12 12:28:10;;;;;;;9.20;4.78;;;;;;;;;;5049152;28;20113;-73
2023/08/12 12:30:36;;;;;;;7.90;3.57;;;;;;;;;;5052510;28;20441;-73
2023/08/12 12:33:01;;;;;;;4.57;2.60;;;;;;;;;;5032367;28;20079;-73
2023/08/12 12:35:26;;;;;;;9.77;3.00;;;;;;;;;;5051173;28;20021;-73
2023/08/12 12:37:51;;;;;;;6.97;2.70;;;;;;;;;;5048625;28;20712;-73
2023/08/12 12:40:17;;;;;;;4.43;2.33;;;;;;;;;;5031254;28;20033;-73
2023/08/12 12:42:42;;;;;;;5.18;1.98;;;;;;;;;;5050248;28;20096;-73
2023/08/12 12:45:08;;;;;;;4.68;2.15;;;;;;;;;;5052239;28;20397;-73
2023/08/12 12:47:33;;;;;;;4.95;1.80;;;;;;;;;;5051483;28;20066;-72
2023/08/12 12:49:58;;;;;;;1.90;1.23;;;;;;;;;;5050564;28;20525;-72
2023/08/12 12:52:23;;;;;;;3.25;1.55;;;;;;;;;;5051458;28;20021;-72
2023/08/12 12:54:48;;;;;;;2.60;1.30;;;;;;;;;;5050401;28;20040;-73
2023/08/12 12:57:14;;;;;;;3.77;1.30;;;;;;;;;;5050957;28;20279;-72
2023/08/12 12:59:39;;;;;;;3.80;1.50;;;;;;;;;;5050288;28;20413;-72
2023/08/12 13:02:04;;;;;;;2.87;1.40;;;;;;;;;;5050279;28;20029;-73
2023/08/12 13:04:30;;;;;;;3.80;1.23;;;;;;;;;;5051085;28;20046;-72
2023/08/12 13:06:55;;;;;;;3.83;1.50;;;;;;;;;;5051859;28;20048;-72
2023/08/12 13:09:20;;;;;;;2.58;1.02;;;;;;;;;;5049849;28;20379;-72
2023/08/12 13:11:45;;;;;;;3.78;1.27;;;;;;;;;;5051744;28;20482;-72
2023/08/12 13:14:11;;;;;;;2.22;1.20;;;;;;;;;;5049979;28;20112;-73
2023/08/12 13:16:36;;;;;;;3.22;0.95;;;;;;;;;;5051480;28;20013;-72
2023/08/12 13:19:01;;;;;;;5.55;2.15;;;;;;;;;;5050078;28;20485;-72
2023/08/12 13:21:27;;;;;;;3.72;1.25;;;;;;;;;;5049921;28;20044;-72
2023/08/12 13:23:52;;;;;;;5.03;1.52;;;;;;;;;;5050804;28;20493;-72
2023/08/12 13:26:18;;;;;;;1.98;0.82;;;;;;;;;;5050672;28;20048;-72
2023/08/12 13:28:43;;;;;;;2.25;0.85;;;;;;;;;;5045958;28;20025;-72
2023/08/12 13:31:09;;;;;;;2.92;1.10;;;;;;;;;;5048688;28;20070;-73
2023/08/12 13:33:34;;;;;;;3.60;1.10;;;;;;;;;;5047881;28;20032;-73
2023/08/12 13:35:59;;;;;;;2.47;0.97;;;;;;;;;;5051119;28;20024;-73
2023/08/12 13:38:25;;;;;;;2.93;0.97;;;;;;;;;;5044825;28;20104;-73
2023/08/12 13:40:50;;;;;;;2.65;1.20;;;;;;;;;;5046534;28;20355;-73
2023/08/12 13:43:18;;;;;;;4.82;1.02;;;;;;;;;;5042276;28;20115;-74
2023/08/12 13:45:43;;;;;;;8.23;1.13;;;;;;;;;;5047798;28;20021;-74
2023/08/12 13:48:08;;;;;;;6.83;1.47;;;;;;;;;;5046539;28;20394;-74
2023/08/12 13:50:33;;;;;;;3.85;1.42;;;;;;;;;;5044941;28;20024;-74
2023/08/12 13:52:59;;;;;;;2.10;1.08;;;;;;;;;;5047534;28;20470;-74
2023/08/12 13:55:25;;;;;;;3.97;1.10;;;;;;;;;;5049033;28;20056;-74
2023/08/12 13:57:50;;;;;;;1.80;1.00;;;;;;;;;;5048579;28;20100;-73
2023/08/12 14:00:15;;;;;;;1.83;1.30;;;;;;;;;;5047956;28;20035;-74
2023/08/12 14:02:41;;;;;;;1.45;1.00;;;;;;;;;;5049870;28;20030;-74
2023/08/12 14:05:06;;;;;;;2.63;1.70;;;;;;;;;;5049532;28;20016;-73
2023/08/12 14:07:31;;;;;;;2.60;1.23;;;;;;;;;;5048553;28;21215;-73
2023/08/12 14:09:58;;;;;;;1.67;1.37;;;;;;;;;;5048925;28;20021;-73
2023/08/12 14:12:23;;;;;;;2.53;1.50;;;;;;;;;;5048511;28;20684;-73
2023/08/12 14:14:48;;;;;;;2.17;1.40;;;;;;;;;;5048519;28;20020;-74
2023/08/12 14:17:14;;;;;;;2.83;1.27;;;;;;;;;;5050123;28;20264;-73
2023/08/12 14:19:41;;;;;;;1.90;1.15;;;;;;;;;;5047398;28;20070;-73
2023/08/12 14:22:06;;;;;;;1.60;1.25;;;;;;;;;;5048870;28;20211;-74
2023/08/12 14:24:31;;;;;;;3.20;1.57;;;;;;;;;;5050077;28;20096;-73